Terminal Aerodrome Forecast
Issued by NWS

Home | Current Version | Previous Version | Text Only | Print | Product List | Glossary On
Versions: 1 2 3 4 5 6 7 8 9 10 11 12 13 14 15 16 17 18 19 20 21 22 23 24
000
FTUS46 KLOX 012300 RRA
TAFVNY
TAF
KVNY 012342Z 0200/0224 18012KT P6SM VCTS SCT040 BKN060CB
     FM020100 16007KT P6SM VCSH SCT050 BKN070
     FM020400 VRB03KT P6SM VCSH BKN025 OVC050
     FM020800 VRB03KT P6SM SCT025 BKN070
     FM021200 VRB03KT P6SM -SHRA BKN020 OVC060
     FM021600 14007KT P6SM VCSH BKN025 OVC050
     FM022100 16006KT P6SM VCSH BKN025 BKN100=

USA.gov is the U.S. government's official web portal to all federal, state and local government web resources and services.